1 de julho de 2022

Hora Código Clima Temp. Visibilidade Tecto Vento METAR/SPECI
12:25 da manhã
I
59 °F 6¼ mi+ 800 ft 290° 290° 9 kt METAR EHGG 302225Z AUTO 29009KT 250V320 9999 FEW005 BKN008 OVC009 15/14 Q1011

30 de junho de 2022

Hora Código Clima Temp. Visibilidade Tecto Vento METAR/SPECI
11:55 da tarde
M
59 °F 6¼ mi+ 1.000 ft 300° 300° 11 kt METAR EHGG 302155Z AUTO 30011KT 250V340 9999 FEW007 SCT008 BKN010 FEW015CB 15/14 Q1011
11:25 da tarde
M
59 °F 6¼ mi+ 1.000 ft 290° 290° 10 kt METAR EHGG 302125Z AUTO 29010KT 250V340 9999 -SHRA FEW007 SCT008 BKN010 BKN015CB 15/14 Q1011 RETSRA
10:55 da tarde
I
61 °F 2⅝ mi 800 ft Var Var 4 kt METAR EHGG 302055Z AUTO VRB04KT 4200 +TSRA SCT006 BKN008 BKN009 BKN015CB 16/15 Q1011 BECMG BKN007 NSW
10:25 da tarde
M
63 °F 6¼ mi+ 1.300 ft 270° 270° 14 kt METAR EHGG 302025Z AUTO 27014KT 240V320 9999 -TSRA SCT010 BKN013 FEW015CB OVC016 17/15 Q1011 TEMPO 24020G35KT 2000 TSRA
9:55 da tarde
M
64 °F 6¼ mi+ 1.600 ft 300° 300° 14 kt METAR EHGG 301955Z AUTO 30014KT 250V330 9999 TS FEW013 FEW015CB OVC016 18/15 Q1010 TEMPO 24020G35KT 2000 TSRA SCT050CB
9:25 da tarde
M
64 °F 6¼ mi+ 1.400 ft 300° 300° 14 kt METAR EHGG 301925Z AUTO 30014KT 260V340 9999 SCT012 BKN014 FEW015CB 18/16 Q1010 NOSIG
8:55 da tarde
V
66 °F 6¼ mi+ - 300° 300° 13 kt METAR EHGG 301855Z AUTO 30013KT 260V330 9999 FEW012 19/16 Q1009 NOSIG
8:25 da tarde
V
70 °F 6¼ mi+ - 310° 310° 12 kt METAR EHGG 301825Z AUTO 31012KT 270V350 9999 NSC 21/17 Q1009 NOSIG
7:55 da tarde
V
72 °F 6¼ mi+ - 320° 320° 9 kt METAR EHGG 301755Z AUTO 32009KT 280V350 9999 NSC 22/17 Q1009 NOSIG
7:25 da tarde
V
72 °F 6¼ mi+ - 330° 330° 10 kt METAR EHGG 301725Z AUTO 33010KT 280V010 9999 NCD 22/17 Q1009 NOSIG
6:55 da tarde
V
73 °F 6¼ mi+ - 320° 320° 11 kt METAR EHGG 301655Z AUTO 32011KT 290V350 9999 NCD 23/17 Q1009 NOSIG
6:25 da tarde
V
73 °F 6¼ mi+ - 320° 320° 10 kt METAR EHGG 301625Z AUTO 32010KT 280V010 9999 NSC 23/18 Q1010 NOSIG
5:55 da tarde
V
75 °F 6¼ mi+ - 340° 340° 8 kt METAR EHGG 301555Z AUTO 34008KT 300V020 9999 NSC 24/18 Q1010 NOSIG
5:25 da tarde
V
75 °F 6¼ mi+ - 350° 350° 7 kt METAR EHGG 301525Z AUTO 35007KT 300V040 9999 NSC 24/18 Q1010 NOSIG
4:55 da tarde
V
75 °F 6¼ mi+ - 350° 350° 8 kt METAR EHGG 301455Z AUTO 35008KT 300V030 9999 NSC 24/18 Q1010 NOSIG
4:25 da tarde
V
77 °F 6¼ mi+ - 340° 340° 9 kt METAR EHGG 301425Z AUTO 34009KT 290V060 9999 NSC 25/18 Q1011 NOSIG
3:55 da tarde
V
77 °F 6¼ mi+ - 330° 330° 11 kt METAR EHGG 301355Z AUTO 33011KT 270V020 9999 NSC 25/18 Q1011 NOSIG
3:25 da tarde
V
79 °F 6¼ mi+ - 340° 340° 10 kt METAR EHGG 301325Z AUTO 34010KT 300V020 9999 NSC 26/18 Q1011 NOSIG
2:55 da tarde
V
81 °F 6¼ mi+ 4.600 ft 280° 280° 8 kt METAR EHGG 301255Z AUTO 28008KT 240V350 9999 BKN046CB 27/16 Q1011 NOSIG
2:25 da tarde
V
82 °F 6¼ mi+ - 260° 260° 7 kt METAR EHGG 301225Z AUTO 26007KT 210V320 9999 FEW043CB 28/17 Q1010 NOSIG
1:55 da tarde
V
79 °F 6¼ mi+ 4.100 ft 240° 240° 2 kt METAR EHGG 301155Z AUTO 24002KT 9999 FEW037CB BKN041 BKN046 26/17 Q1011 NOSIG
1:25 da tarde
V
81 °F 6¼ mi+ 3.900 ft Var Var 2 kt METAR EHGG 301125Z AUTO VRB02KT 9999 FEW035 BKN039 BKN049 27/17 Q1011 BECMG 33010KT
12:55 da tarde
V
79 °F 6¼ mi+ - 130° 130° 3 kt METAR EHGG 301055Z AUTO 13003KT 080V190 9999 NSC 26/17 Q1011 BECMG 33010KT
12:25 da tarde
V
79 °F 6¼ mi+ - Var Var 4 kt METAR EHGG 301025Z AUTO VRB04KT 9999 NCD 26/17 Q1011 NOSIG
11:55 da manhã
V
79 °F 6¼ mi+ - 120° 120° 5 kt METAR EHGG 300955Z AUTO 12005KT 060V180 9999 NCD 26/18 Q1011 NOSIG
11:25 da manhã
V
77 °F 6¼ mi+ - 140° 140° 4 kt METAR EHGG 300925Z AUTO 14004KT 090V200 9999 NCD 25/18 Q1011 NOSIG
10:55 da manhã
V
75 °F 6¼ mi+ - 130° 130° 5 kt METAR EHGG 300855Z AUTO 13005KT 080V180 9999 NCD 24/18 Q1011 NOSIG
10:25 da manhã
V
73 °F 6¼ mi+ - 140° 140° 6 kt METAR EHGG 300825Z AUTO 14006KT 090V180 9999 NCD 23/17 Q1011 NOSIG
9:55 da manhã
V
73 °F 6¼ mi+ - 140° 140° 7 kt METAR EHGG 300755Z AUTO 14007KT 090V180 9999 NCD 23/16 Q1011 NOSIG
9:25 da manhã
V
72 °F 6¼ mi+ - 120° 120° 6 kt METAR EHGG 300725Z AUTO 12006KT 070V170 9999 NCD 22/16 Q1011 NOSIG
8:55 da manhã
V
70 °F 6¼ mi+ - 100° 100° 7 kt METAR EHGG 300655Z AUTO 10007KT 060V160 9999 NCD 21/15 Q1011 NOSIG
8:25 da manhã
V
68 °F 6¼ mi+ - 100° 100° 8 kt METAR EHGG 300625Z AUTO 10008KT 060V140 9999 NCD 20/14 Q1011 NOSIG
7:55 da manhã
V
66 °F 6¼ mi+ - 100° 100° 8 kt METAR EHGG 300555Z AUTO 10008KT 070V140 9999 NCD 19/14 Q1011 NOSIG
7:25 da manhã
V
64 °F 6¼ mi+ - 100° 100° 5 kt METAR EHGG 300525Z AUTO 10005KT 9999 NSC 18/13 Q1011 NOSIG
6:55 da manhã
V
64 °F 6¼ mi+ - 120° 120° 5 kt METAR EHGG 300455Z AUTO 12005KT 080V150 9999 NSC 18/13 Q1011 NOSIG
6:25 da manhã
V
64 °F 6¼ mi+ - 100° 100° 7 kt METAR EHGG 300425Z AUTO 10007KT 070V150 9999 NSC 18/13 Q1011
5:55 da manhã
V
64 °F 6¼ mi+ - 100° 100° 6 kt METAR EHGG 300355Z AUTO 10006KT 9999 NCD 18/13 Q1011
5:25 da manhã
V
63 °F 6¼ mi+ - 100° 100° 7 kt METAR EHGG 300325Z AUTO 10007KT 9999 NCD 17/13 Q1011
4:55 da manhã
V
64 °F 6¼ mi+ - 100° 100° 6 kt METAR EHGG 300255Z AUTO 10006KT 9999 NCD 18/13 Q1011
4:25 da manhã
V
64 °F 6¼ mi+ - 100° 100° 6 kt METAR EHGG 300225Z AUTO 10006KT 070V130 9999 NSC 18/13 Q1011
3:55 da manhã
V
64 °F 6¼ mi+ - 110° 110° 6 kt METAR EHGG 300155Z AUTO 11006KT 080V140 9999 NCD 18/13 Q1012
3:25 da manhã
V
64 °F 6¼ mi+ - 100° 100° 6 kt METAR EHGG 300125Z AUTO 10006KT 060V130 9999 NCD 18/13 Q1012
2:55 da manhã
V
66 °F 6¼ mi+ - 090° 090° 6 kt METAR EHGG 300055Z AUTO 09006KT 9999 NCD 19/13 Q1012
2:25 da manhã
V
66 °F 6¼ mi+ - 090° 090° 4 kt METAR EHGG 300025Z AUTO 09004KT 9999 NSC 19/14 Q1012
1:55 da manhã
V
70 °F 6¼ mi+ - 130° 130° 3 kt METAR EHGG 292355Z AUTO 13003KT 080V180 9999 NSC 21/15 Q1012
1:25 da manhã
V
68 °F 6¼ mi+ - Var Var 2 kt METAR EHGG 292325Z AUTO VRB02KT 9999 NSC 20/16 Q1012
12:55 da manhã
V
68 °F 6¼ mi+ - 110° 110° 4 kt METAR EHGG 292255Z AUTO 11004KT 080V140 9999 NSC 20/16 Q1012
12:25 da manhã
V
66 °F 6¼ mi+ - 110° 110° 2 kt METAR EHGG 292225Z AUTO 11002KT 9999 NSC 19/16 Q1012

29 de junho de 2022

Hora Código Clima Temp. Visibilidade Tecto Vento METAR/SPECI
11:55 da tarde
V
68 °F 6¼ mi+ - 100° 100° 2 kt METAR EHGG 292155Z AUTO 10002KT 9999 NSC 20/17 Q1012
11:25 da tarde
V
66 °F 6¼ mi+ - 080° 080° 2 kt METAR EHGG 292125Z AUTO 08002KT 9999 NSC 19/16 Q1012
10:55 da tarde
V
68 °F 6¼ mi+ - 050° 050° 3 kt METAR EHGG 292055Z AUTO 05003KT 9999 NSC 20/16 Q1012 NOSIG
10:25 da tarde
V
70 °F 6¼ mi+ - 090° 090° 1 kt METAR EHGG 292025Z AUTO 09001KT 9999 NSC 21/15 Q1012 NOSIG
9:55 da tarde
V
72 °F 6¼ mi+ - 090° 090° 3 kt METAR EHGG 291955Z AUTO 09003KT 9999 NSC 22/15 Q1012 NOSIG
9:25 da tarde
V
75 °F 6¼ mi+ - Var Var 1 kt METAR EHGG 291925Z AUTO VRB01KT 9999 NSC 24/14 Q1012 NOSIG
8:55 da tarde
V
77 °F 6¼ mi+ - Var Var 2 kt METAR EHGG 291855Z AUTO VRB02KT 9999 NSC 25/13 Q1012 NOSIG
8:25 da tarde
V
77 °F 6¼ mi+ - 110° 110° 3 kt METAR EHGG 291825Z AUTO 11003KT 080V140 9999 NSC 25/12 Q1012 NOSIG
7:55 da tarde
V
79 °F 6¼ mi+ - 140° 140° 5 kt METAR EHGG 291755Z AUTO 14005KT 090V180 9999 NSC 26/13 Q1012 NOSIG
7:25 da tarde
V
79 °F 6¼ mi+ - 140° 140° 6 kt METAR EHGG 291725Z AUTO 14006KT 100V180 9999 NSC 26/11 Q1012 NOSIG
6:55 da tarde
V
81 °F 6¼ mi+ - 160° 160° 5 kt METAR EHGG 291655Z AUTO 16005KT 090V210 9999 NSC 27/13 Q1012 NOSIG
6:25 da tarde
V
79 °F 6¼ mi+ - 160° 160° 7 kt METAR EHGG 291625Z AUTO 16007KT 120V210 9999 NSC 26/12 Q1012 NOSIG
5:55 da tarde
V
79 °F 6¼ mi+ - 140° 140° 8 kt METAR EHGG 291555Z AUTO 14008KT 090V180 9999 NSC 26/14 Q1012 NOSIG
5:25 da tarde
V
79 °F 6¼ mi+ - 130° 130° 6 kt METAR EHGG 291525Z AUTO 13006KT 080V180 9999 NSC 26/14 Q1013 NOSIG
4:55 da tarde
V
79 °F 6¼ mi+ - 160° 160° 7 kt METAR EHGG 291455Z AUTO 16007KT 080V210 9999 NSC 26/14 Q1013 NOSIG
4:25 da tarde
V
81 °F 6¼ mi+ - 130° 130° 8 kt METAR EHGG 291425Z AUTO 13008KT 060V200 9999 NSC 27/14 Q1013 NOSIG
3:55 da tarde
V
79 °F 6¼ mi+ - 120° 120° 9 kt METAR EHGG 291355Z AUTO 12009KT 070V160 9999 NSC 26/15 Q1013 NOSIG
3:25 da tarde
V
79 °F 6¼ mi+ - 140° 140° 8 kt METAR EHGG 291325Z AUTO 14008KT 060V190 9999 NSC 26/13 Q1013 NOSIG
2:55 da tarde
V
79 °F 6¼ mi+ - 110° 110° 9 kt METAR EHGG 291255Z AUTO 11009KT 080V160 9999 NCD 26/13 Q1013 NOSIG
2:25 da tarde
V
81 °F 6¼ mi+ - 120° 120° 8 kt METAR EHGG 291225Z AUTO 12008KT 070V170 9999 NSC 27/12 Q1013 NOSIG
1:55 da tarde
V
79 °F 6¼ mi+ - 140° 140° 10 kt METAR EHGG 291155Z AUTO 14010KT 070V190 9999 NCD 26/11 Q1014 NOSIG
1:25 da tarde
V
79 °F 6¼ mi+ - 130° 130° 7 kt METAR EHGG 291125Z AUTO 13007KT 070V170 9999 NSC 26/11 Q1014 NOSIG
12:55 da tarde
V
77 °F 6¼ mi+ - 110° 110° 6 kt METAR EHGG 291055Z AUTO 11006KT 060V150 9999 NSC 25/12 Q1014 NOSIG
12:25 da tarde
V
77 °F 6¼ mi+ - 130° 130° 8 kt METAR EHGG 291025Z AUTO 13008KT 080V180 9999 NSC 25/11 Q1014 NOSIG
11:55 da manhã
V
77 °F 6¼ mi+ - 130° 130° 8 kt METAR EHGG 290955Z AUTO 13008KT 070V190 9999 NSC 25/12 Q1015 NOSIG
11:25 da manhã
V
75 °F 6¼ mi+ - 120° 120° 8 kt METAR EHGG 290925Z AUTO 12008KT 080V170 9999 NSC 24/12 Q1015 NOSIG
10:55 da manhã
V
73 °F 6¼ mi+ - 120° 120° 7 kt METAR EHGG 290855Z AUTO 12007KT 070V170 9999 NSC 23/12 Q1015 NOSIG
10:25 da manhã
V
72 °F 6¼ mi+ - 120° 120° 8 kt METAR EHGG 290825Z AUTO 12008KT 080V170 9999 NSC 22/12 Q1015 NOSIG
9:55 da manhã
V
72 °F 6¼ mi+ - 110° 110° 6 kt METAR EHGG 290755Z AUTO 11006KT 070V180 9999 NCD 22/12 Q1015 NOSIG
9:25 da manhã
V
70 °F 6¼ mi+ - 120° 120° 5 kt METAR EHGG 290725Z AUTO 12005KT 070V180 9999 NCD 21/14 Q1015 NOSIG
8:55 da manhã
V
68 °F 6¼ mi+ - 100° 100° 6 kt METAR EHGG 290655Z AUTO 10006KT 070V140 9999 NCD 20/13 Q1015 NOSIG
8:25 da manhã
V
64 °F 6¼ mi+ - 100° 100° 5 kt METAR EHGG 290625Z AUTO 10005KT 070V140 9999 NCD 18/13 Q1015 NOSIG
7:55 da manhã
V
63 °F 6¼ mi+ - 100° 100° 5 kt METAR EHGG 290555Z AUTO 10005KT 060V140 9999 NSC 17/13 Q1015 NOSIG
7:25 da manhã
V
61 °F 6¼ mi+ - 100° 100° 6 kt METAR EHGG 290525Z AUTO 10006KT 050V140 9999 NSC 16/12 Q1016 NOSIG
6:55 da manhã
V
59 °F 6¼ mi+ - 090° 090° 5 kt METAR EHGG 290455Z AUTO 09005KT 9999 NSC 15/13 Q1016 NOSIG
6:25 da manhã
V
59 °F 6¼ mi+ - 080° 080° 5 kt METAR EHGG 290425Z AUTO 08005KT 9999 NSC 15/12 Q1016 NOSIG
5:55 da manhã
V
59 °F 6¼ mi+ - 080° 080° 5 kt METAR EHGG 290355Z AUTO 08005KT 9999 NSC 15/12 Q1016
5:25 da manhã
V
59 °F 6¼ mi+ - 090° 090° 5 kt METAR EHGG 290325Z AUTO 09005KT 9999 NSC 15/12 Q1016
4:55 da manhã
V
59 °F 6¼ mi+ - 090° 090° 5 kt METAR EHGG 290255Z AUTO 09005KT 9999 NSC 15/12 Q1016
4:25 da manhã
V
59 °F 6¼ mi+ - 080° 080° 6 kt METAR EHGG 290225Z AUTO 08006KT 9999 NSC 15/13 Q1017
3:55 da manhã
V
59 °F 6¼ mi+ - 080° 080° 6 kt METAR EHGG 290155Z AUTO 08006KT 9999 NSC 15/13 Q1017
3:25 da manhã
V
59 °F 6¼ mi+ - 090° 090° 6 kt METAR EHGG 290125Z AUTO 09006KT 9999 NSC 15/13 Q1017
2:55 da manhã
V
59 °F 6¼ mi+ - 080° 080° 5 kt METAR EHGG 290055Z AUTO 08005KT 9999 NCD 15/13 Q1017
2:25 da manhã
V
59 °F 6¼ mi+ - 080° 080° 5 kt METAR EHGG 290025Z AUTO 08005KT 9999 NCD 15/13 Q1018
1:55 da manhã
V
61 °F 6¼ mi+ - 090° 090° 6 kt METAR EHGG 282355Z AUTO 09006KT 060V120 9999 NSC 16/13 Q1018
1:25 da manhã
V
61 °F 6¼ mi+ - 090° 090° 7 kt METAR EHGG 282325Z AUTO 09007KT 9999 NCD 16/13 Q1018
12:55 da manhã
V
61 °F 6¼ mi+ - 090° 090° 5 kt METAR EHGG 282255Z AUTO 09005KT 060V120 9999 NCD 16/14 Q1018
12:25 da manhã
V
59 °F 6¼ mi+ - 080° 080° 5 kt METAR EHGG 282225Z AUTO 08005KT 9999 NCD 15/13 Q1018

28 de junho de 2022

Hora Código Clima Temp. Visibilidade Tecto Vento METAR/SPECI
11:55 da tarde
V
57 °F 6¼ mi+ - 070° 070° 5 kt METAR EHGG 282155Z AUTO 07005KT 9999 NCD 14/12 Q1018
11:25 da tarde
V
61 °F 6¼ mi+ - 050° 050° 5 kt METAR EHGG 282125Z AUTO 05005KT 9999 NCD 16/12 Q1018
10:55 da tarde
V
57 °F 6¼ mi+ - 060° 060° 4 kt METAR EHGG 282055Z AUTO 06004KT 9999 NCD 14/11 Q1018
10:25 da tarde
V
61 °F 6¼ mi+ - 040° 040° 4 kt METAR EHGG 282025Z AUTO 04004KT 9999 NCD 16/11 Q1019 NOSIG
9:55 da tarde
V
63 °F 6¼ mi+ - 040° 040° 4 kt METAR EHGG 281955Z AUTO 04004KT 9999 NCD 17/11 Q1019 NOSIG
9:25 da tarde
V
68 °F 6¼ mi+ - 350° 350° 3 kt METAR EHGG 281925Z AUTO 35003KT 9999 NCD 20/10 Q1019 NOSIG
8:55 da tarde
V
70 °F 6¼ mi+ - 330° 330° 3 kt METAR EHGG 281855Z AUTO 33003KT 9999 NCD 21/10 Q1019 NOSIG
8:25 da tarde
V
70 °F 6¼ mi+ - 330° 330° 4 kt METAR EHGG 281825Z AUTO 33004KT 290V030 9999 NCD 21/09 Q1019 NOSIG
7:55 da tarde
V
72 °F 6¼ mi+ - 280° 280° 4 kt METAR EHGG 281755Z AUTO 28004KT 250V350 9999 NCD 22/09 Q1019 NOSIG
7:25 da tarde
V
72 °F 6¼ mi+ - 290° 290° 5 kt METAR EHGG 281725Z AUTO 29005KT 250V320 9999 NCD 22/10 Q1019 NOSIG
6:55 da tarde
V
72 °F 6¼ mi+ - 290° 290° 6 kt METAR EHGG 281655Z AUTO 29006KT 240V350 9999 NSC 22/10 Q1019 NOSIG
6:25 da tarde
V
72 °F 6¼ mi+ - 200° 200° 5 kt METAR EHGG 281625Z AUTO 20005KT 160V270 9999 NSC 22/10 Q1019 NOSIG
5:55 da tarde
V
72 °F 6¼ mi+ - 230° 230° 6 kt METAR EHGG 281555Z AUTO 23006KT 180V270 9999 NCD 22/10 Q1019 NOSIG
5:25 da tarde
V
72 °F 6¼ mi+ - 220° 220° 6 kt METAR EHGG 281525Z AUTO 22006KT 130V290 9999 NSC 22/10 Q1019 NOSIG
4:55 da tarde
V
72 °F 6¼ mi+ - 170° 170° 7 kt METAR EHGG 281455Z AUTO 17007KT 130V250 9999 NSC 22/10 Q1020 NOSIG
Dados mais antigos

Baixe nosso aplicativo

Fácil acesso a todas as condições meteorológicas da aviação no seu celular e no seu tablet.
Com muitas características não disponíveis no site, como suporte offline e uma lista pessoal de aeroportos.

Nós e terceiros acompanhamos seu comportamento na internet em nosso site com cookies. Se você continuar, nós assumimos que você concorda com nossa política de cookies. Saiba mais